SCJK weather

Juan Kemp Airport
Osorno, Los Lagos Region, Chile

Public forecast

Using degrees Celsius for public forecast. Weather courtesy of forecast.io.

METAR (pilot weather report)

Closest report is Cañal Bajo Carlos - Hott Siebert Airport, 35.5 nm (65.7 km) WNW. Retrieved 2019/07/22 19:00 UTC (46 minutes ago):

SCJO 221900Z VRB02KT 9999 SCT030 09/04 Q1026

TAF (pilot weather forecast)

Forecast is more than 6 hours old.

Closest forecast is Cañal Bajo Carlos - Hott Siebert Airport, 35.5 nm (65.7 km) WNW. Retrieved 2019/07/22 12:33 UTC (7 hours ago):

TAF COR SCJO 221125Z 2212/2224 VRB02KT 0600 FG OVC005 BKN035 TN00/2212Z TX09/2218Z TEMPO 2212/2213 3000 BR BKN007 BECMG 2213/2215 9999 NSW SCT010 SCT025 TEMPO 2216/2220 9999 -SHRA FEW018 BKN025 BECMG 2221/2223 26004KT BKN025 SCT045